sensor_id;sensor_type;location;lat;lon;timestamp;temperature;humidity
78649;DHT22;67962;47.310;9.642;2023-06-04T00:01:21;17.70;62.50
78649;DHT22;67962;47.310;9.642;2023-06-04T00:03:46;17.70;62.40
78649;DHT22;67962;47.310;9.642;2023-06-04T00:06:12;17.70;62.30
78649;DHT22;67962;47.310;9.642;2023-06-04T00:08:38;17.70;62.30
78649;DHT22;67962;47.310;9.642;2023-06-04T00:11:04;17.80;62.10
78649;DHT22;67962;47.310;9.642;2023-06-04T00:13:29;17.90;61.80
78649;DHT22;67962;47.310;9.642;2023-06-04T00:15:55;17.90;61.40
78649;DHT22;67962;47.310;9.642;2023-06-04T00:18:21;18.00;61.30
78649;DHT22;67962;47.310;9.642;2023-06-04T00:20:46;18.10;61.10
78649;DHT22;67962;47.310;9.642;2023-06-04T00:23:12;18.10;61.10
78649;DHT22;67962;47.310;9.642;2023-06-04T00:25:38;18.10;60.90
78649;DHT22;67962;47.310;9.642;2023-06-04T00:28:03;18.10;60.70
78649;DHT22;67962;47.310;9.642;2023-06-04T00:30:29;18.10;60.70
78649;DHT22;67962;47.310;9.642;2023-06-04T00:32:55;18.10;60.60
78649;DHT22;67962;47.310;9.642;2023-06-04T00:35:20;18.10;60.60
78649;DHT22;67962;47.310;9.642;2023-06-04T00:37:47;18.00;60.60
78649;DHT22;67962;47.310;9.642;2023-06-04T00:40:13;17.90;60.80
78649;DHT22;67962;47.310;9.642;2023-06-04T00:42:38;17.70;62.00
78649;DHT22;67962;47.310;9.642;2023-06-04T00:45:05;17.70;61.40
78649;DHT22;67962;47.310;9.642;2023-06-04T00:47:35;17.70;61.20
78649;DHT22;67962;47.310;9.642;2023-06-04T00:50:01;17.70;61.30
78649;DHT22;67962;47.310;9.642;2023-06-04T00:52:27;17.60;61.50
78649;DHT22;67962;47.310;9.642;2023-06-04T00:54:53;17.60;61.70
78649;DHT22;67962;47.310;9.642;2023-06-04T00:57:23;17.50;61.60
78649;DHT22;67962;47.310;9.642;2023-06-04T00:59:49;17.60;61.50
78649;DHT22;67962;47.310;9.642;2023-06-04T01:02:21;17.60;61.40
78649;DHT22;67962;47.310;9.642;2023-06-04T01:07:16;17.60;61.50
78649;DHT22;67962;47.310;9.642;2023-06-04T01:09:44;17.40;61.70
78649;DHT22;67962;47.310;9.642;2023-06-04T01:12:10;17.40;62.00
78649;DHT22;67962;47.310;9.642;2023-06-04T01:14:37;17.40;61.90
78649;DHT22;67962;47.310;9.642;2023-06-04T01:20:34;17.50;61.40
78649;DHT22;67962;47.310;9.642;2023-06-04T01:25:39;17.40;61.60
78649;DHT22;67962;47.310;9.642;2023-06-04T01:28:06;17.40;61.80
78649;DHT22;67962;47.310;9.642;2023-06-04T01:30:35;17.40;61.70
78649;DHT22;67962;47.310;9.642;2023-06-04T01:33:03;17.40;62.00
78649;DHT22;67962;47.310;9.642;2023-06-04T01:35:29;17.20;62.20
78649;DHT22;67962;47.310;9.642;2023-06-04T01:37:58;17.20;62.40
78649;DHT22;67962;47.310;9.642;2023-06-04T01:40:24;17.10;62.50
78649;DHT22;67962;47.310;9.642;2023-06-04T01:42:51;17.10;62.50
78649;DHT22;67962;47.310;9.642;2023-06-04T01:45:16;17.10;62.50
78649;DHT22;67962;47.310;9.642;2023-06-04T01:47:42;17.10;62.40
78649;DHT22;67962;47.310;9.642;2023-06-04T01:50:08;17.10;62.20
78649;DHT22;67962;47.310;9.642;2023-06-04T01:52:37;17.10;62.30
78649;DHT22;67962;47.310;9.642;2023-06-04T01:55:04;17.20;62.30
78649;DHT22;67962;47.310;9.642;2023-06-04T01:57:30;17.10;62.10
78649;DHT22;67962;47.310;9.642;2023-06-04T01:59:56;17.10;62.40
78649;DHT22;67962;47.310;9.642;2023-06-04T02:02:21;16.90;62.90
78649;DHT22;67962;47.310;9.642;2023-06-04T02:04:47;16.80;62.90
78649;DHT22;67962;47.310;9.642;2023-06-04T02:07:17;16.90;63.00
78649;DHT22;67962;47.310;9.642;2023-06-04T02:09:46;16.90;63.00
78649;DHT22;67962;47.310;9.642;2023-06-04T02:12:12;16.80;63.30
78649;DHT22;67962;47.310;9.642;2023-06-04T02:14:38;16.70;63.20
78649;DHT22;67962;47.310;9.642;2023-06-04T02:17:04;16.80;63.40
78649;DHT22;67962;47.310;9.642;2023-06-04T02:19:30;16.70;63.50
78649;DHT22;67962;47.310;9.642;2023-06-04T02:21:59;16.70;63.60
78649;DHT22;67962;47.310;9.642;2023-06-04T02:24:25;16.80;63.40
78649;DHT22;67962;47.310;9.642;2023-06-04T02:26:50;16.80;63.40
78649;DHT22;67962;47.310;9.642;2023-06-04T02:29:16;16.80;63.30
78649;DHT22;67962;47.310;9.642;2023-06-04T02:31:42;16.70;63.50
78649;DHT22;67962;47.310;9.642;2023-06-04T02:34:07;16.60;63.70
78649;DHT22;67962;47.310;9.642;2023-06-04T02:36:34;16.60;63.80
78649;DHT22;67962;47.310;9.642;2023-06-04T02:38:59;16.60;63.90
78649;DHT22;67962;47.310;9.642;2023-06-04T02:41:26;16.50;63.80
78649;DHT22;67962;47.310;9.642;2023-06-04T02:43:52;16.60;63.70
78649;DHT22;67962;47.310;9.642;2023-06-04T02:46:17;16.60;63.40
78649;DHT22;67962;47.310;9.642;2023-06-04T02:48:43;16.60;63.30
78649;DHT22;67962;47.310;9.642;2023-06-04T02:51:09;16.60;63.30
78649;DHT22;67962;47.310;9.642;2023-06-04T02:53:36;16.70;63.10
78649;DHT22;67962;47.310;9.642;2023-06-04T02:56:02;16.70;63.00
78649;DHT22;67962;47.310;9.642;2023-06-04T02:58:28;16.70;62.90
78649;DHT22;67962;47.310;9.642;2023-06-04T03:00:54;16.70;63.00
78649;DHT22;67962;47.310;9.642;2023-06-04T03:03:21;16.60;63.10
78649;DHT22;67962;47.310;9.642;2023-06-04T03:05:47;16.60;63.00
78649;DHT22;67962;47.310;9.642;2023-06-04T03:08:13;16.60;63.20
78649;DHT22;67962;47.310;9.642;2023-06-04T03:10:39;16.70;62.90
78649;DHT22;67962;47.310;9.642;2023-06-04T03:13:04;16.70;62.70
78649;DHT22;67962;47.310;9.642;2023-06-04T03:15:30;16.80;62.70
78649;DHT22;67962;47.310;9.642;2023-06-04T03:17:56;16.80;62.30
78649;DHT22;67962;47.310;9.642;2023-06-04T03:20:22;16.90;62.10
78649;DHT22;67962;47.310;9.642;2023-06-04T03:22:50;17.00;62.00
78649;DHT22;67962;47.310;9.642;2023-06-04T03:25:16;17.00;62.00
78649;DHT22;67962;47.310;9.642;2023-06-04T03:27:42;17.00;62.00
78649;DHT22;67962;47.310;9.642;2023-06-04T03:30:08;17.00;62.00
78649;DHT22;67962;47.310;9.642;2023-06-04T03:32:33;17.00;62.10
78649;DHT22;67962;47.310;9.642;2023-06-04T03:35:00;17.00;62.50
78649;DHT22;67962;47.310;9.642;2023-06-04T03:37:26;16.80;62.70
78649;DHT22;67962;47.310;9.642;2023-06-04T03:39:52;16.80;62.80
78649;DHT22;67962;47.310;9.642;2023-06-04T03:42:18;16.70;63.20
78649;DHT22;67962;47.310;9.642;2023-06-04T03:44:44;16.50;63.50
78649;DHT22;67962;47.310;9.642;2023-06-04T03:47:10;16.50;63.50
78649;DHT22;67962;47.310;9.642;2023-06-04T03:49:36;16.60;64.30
78649;DHT22;67962;47.310;9.642;2023-06-04T03:52:01;16.60;63.50
78649;DHT22;67962;47.310;9.642;2023-06-04T03:54:27;16.60;63.50
78649;DHT22;67962;47.310;9.642;2023-06-04T03:56:52;16.70;63.30
78649;DHT22;67962;47.310;9.642;2023-06-04T03:59:18;16.70;63.30
78649;DHT22;67962;47.310;9.642;2023-06-04T04:01:44;16.60;63.60
78649;DHT22;67962;47.310;9.642;2023-06-04T04:04:10;16.60;63.80
78649;DHT22;67962;47.310;9.642;2023-06-04T04:06:35;16.60;63.70
78649;DHT22;67962;47.310;9.642;2023-06-04T04:09:03;16.70;63.50
78649;DHT22;67962;47.310;9.642;2023-06-04T04:11:29;16.80;63.40
78649;DHT22;67962;47.310;9.642;2023-06-04T04:13:56;16.80;63.40
78649;DHT22;67962;47.310;9.642;2023-06-04T04:16:21;16.80;63.60
78649;DHT22;67962;47.310;9.642;2023-06-04T04:18:47;16.80;63.60
78649;DHT22;67962;47.310;9.642;2023-06-04T04:21:13;16.60;63.80
78649;DHT22;67962;47.310;9.642;2023-06-04T04:23:39;16.60;64.20
78649;DHT22;67962;47.310;9.642;2023-06-04T04:26:08;16.70;64.20
78649;DHT22;67962;47.310;9.642;2023-06-04T04:28:35;16.80;64.10
78649;DHT22;67962;47.310;9.642;2023-06-04T04:31:01;16.90;63.50
78649;DHT22;67962;47.310;9.642;2023-06-04T04:33:28;17.00;63.30
78649;DHT22;67962;47.310;9.642;2023-06-04T04:35:58;17.20;63.30
78649;DHT22;67962;47.310;9.642;2023-06-04T04:38:25;17.20;63.40
78649;DHT22;67962;47.310;9.642;2023-06-04T04:40:51;17.20;63.70
78649;DHT22;67962;47.310;9.642;2023-06-04T04:43:38;17.20;64.10
78649;DHT22;67962;47.310;9.642;2023-06-04T04:46:07;17.30;64.40
78649;DHT22;67962;47.310;9.642;2023-06-04T04:48:33;17.30;64.30
78649;DHT22;67962;47.310;9.642;2023-06-04T04:50:59;17.30;64.10
78649;DHT22;67962;47.310;9.642;2023-06-04T04:53:26;17.40;64.00
78649;DHT22;67962;47.310;9.642;2023-06-04T04:55:52;17.50;64.10
78649;DHT22;67962;47.310;9.642;2023-06-04T04:58:18;17.60;64.20
78649;DHT22;67962;47.310;9.642;2023-06-04T05:00:43;17.80;63.90
78649;DHT22;67962;47.310;9.642;2023-06-04T05:03:09;18.20;64.20
78649;DHT22;67962;47.310;9.642;2023-06-04T05:05:35;18.70;63.60
78649;DHT22;67962;47.310;9.642;2023-06-04T05:08:01;19.20;62.80
78649;DHT22;67962;47.310;9.642;2023-06-04T05:10:26;19.70;61.50
78649;DHT22;67962;47.310;9.642;2023-06-04T05:12:54;20.00;60.50
78649;DHT22;67962;47.310;9.642;2023-06-04T05:15:19;20.30;60.00
78649;DHT22;67962;47.310;9.642;2023-06-04T05:17:46;20.40;58.90
78649;DHT22;67962;47.310;9.642;2023-06-04T05:20:13;20.30;57.80
78649;DHT22;67962;47.310;9.642;2023-06-04T05:22:39;20.40;58.10
78649;DHT22;67962;47.310;9.642;2023-06-04T05:25:05;20.70;56.60
78649;DHT22;67962;47.310;9.642;2023-06-04T05:27:34;20.90;55.20
78649;DHT22;67962;47.310;9.642;2023-06-04T05:30:01;20.90;55.10
78649;DHT22;67962;47.310;9.642;2023-06-04T05:32:28;21.00;55.00
78649;DHT22;67962;47.310;9.642;2023-06-04T05:34:55;21.40;54.70
78649;DHT22;67962;47.310;9.642;2023-06-04T05:37:25;21.70;53.90
78649;DHT22;67962;47.310;9.642;2023-06-04T05:39:52;21.80;53.30
78649;DHT22;67962;47.310;9.642;2023-06-04T05:42:18;21.90;52.80
78649;DHT22;67962;47.310;9.642;2023-06-04T05:44:45;22.10;52.30
78649;DHT22;67962;47.310;9.642;2023-06-04T05:47:11;22.30;52.20
78649;DHT22;67962;47.310;9.642;2023-06-04T05:49:36;22.60;51.80
78649;DHT22;67962;47.310;9.642;2023-06-04T05:52:02;22.70;50.00
78649;DHT22;67962;47.310;9.642;2023-06-04T05:54:29;22.70;49.10
78649;DHT22;67962;47.310;9.642;2023-06-04T05:56:55;22.70;48.00
78649;DHT22;67962;47.310;9.642;2023-06-04T05:59:21;22.90;47.70
78649;DHT22;67962;47.310;9.642;2023-06-04T06:01:47;23.10;47.10
78649;DHT22;67962;47.310;9.642;2023-06-04T06:04:15;23.40;47.20
78649;DHT22;67962;47.310;9.642;2023-06-04T06:06:42;23.60;46.40
78649;DHT22;67962;47.310;9.642;2023-06-04T06:09:14;23.70;46.30
78649;DHT22;67962;47.310;9.642;2023-06-04T06:11:40;23.90;45.50
78649;DHT22;67962;47.310;9.642;2023-06-04T06:14:06;23.90;45.60
78649;DHT22;67962;47.310;9.642;2023-06-04T06:16:32;24.00;45.60
78649;DHT22;67962;47.310;9.642;2023-06-04T06:18:58;24.20;44.70
78649;DHT22;67962;47.310;9.642;2023-06-04T06:21:24;24.50;43.80
78649;DHT22;67962;47.310;9.642;2023-06-04T06:23:51;24.50;43.20
78649;DHT22;67962;47.310;9.642;2023-06-04T06:26:17;24.70;43.50
78649;DHT22;67962;47.310;9.642;2023-06-04T06:28:43;24.90;42.40
78649;DHT22;67962;47.310;9.642;2023-06-04T06:31:09;24.70;41.40
78649;DHT22;67962;47.310;9.642;2023-06-04T06:33:35;24.70;41.70
78649;DHT22;67962;47.310;9.642;2023-06-04T06:36:15;24.70;42.10
78649;DHT22;67962;47.310;9.642;2023-06-04T06:38:44;24.50;42.40
78649;DHT22;67962;47.310;9.642;2023-06-04T06:41:10;24.20;42.60
78649;DHT22;67962;47.310;9.642;2023-06-04T06:43:36;24.20;43.00
78649;DHT22;67962;47.310;9.642;2023-06-04T06:46:02;24.40;43.30
78649;DHT22;67962;47.310;9.642;2023-06-04T06:48:28;24.60;42.20
78649;DHT22;67962;47.310;9.642;2023-06-04T06:50:54;25.00;42.50
78649;DHT22;67962;47.310;9.642;2023-06-04T06:53:20;25.30;41.60
78649;DHT22;67962;47.310;9.642;2023-06-04T06:55:46;25.50;41.60
78649;DHT22;67962;47.310;9.642;2023-06-04T06:58:11;25.70;40.90
78649;DHT22;67962;47.310;9.642;2023-06-04T07:00:37;25.60;40.80
78649;DHT22;67962;47.310;9.642;2023-06-04T07:03:03;25.80;41.40
78649;DHT22;67962;47.310;9.642;2023-06-04T07:05:29;26.10;42.20
78649;DHT22;67962;47.310;9.642;2023-06-04T07:07:55;26.10;41.50
78649;DHT22;67962;47.310;9.642;2023-06-04T07:10:22;25.90;41.10
78649;DHT22;67962;47.310;9.642;2023-06-04T07:12:48;25.40;40.90
78649;DHT22;67962;47.310;9.642;2023-06-04T07:15:14;24.90;41.40
78649;DHT22;67962;47.310;9.642;2023-06-04T07:17:40;24.60;42.40
78649;DHT22;67962;47.310;9.642;2023-06-04T07:20:06;24.50;44.00
78649;DHT22;67962;47.310;9.642;2023-06-04T07:22:34;24.50;44.20
78649;DHT22;67962;47.310;9.642;2023-06-04T07:25:00;24.60;44.30
78649;DHT22;67962;47.310;9.642;2023-06-04T07:27:26;25.00;44.20
78649;DHT22;67962;47.310;9.642;2023-06-04T07:29:52;25.20;43.20
78649;DHT22;67962;47.310;9.642;2023-06-04T07:32:18;25.20;42.50
78649;DHT22;67962;47.310;9.642;2023-06-04T07:34:44;25.30;42.00
78649;DHT22;67962;47.310;9.642;2023-06-04T07:37:10;25.40;43.10
78649;DHT22;67962;47.310;9.642;2023-06-04T07:39:38;25.40;42.70
78649;DHT22;67962;47.310;9.642;2023-06-04T07:42:04;25.50;42.20
78649;DHT22;67962;47.310;9.642;2023-06-04T07:44:31;25.30;40.60
78649;DHT22;67962;47.310;9.642;2023-06-04T07:46:56;25.40;41.90
78649;DHT22;67962;47.310;9.642;2023-06-04T07:49:22;25.40;41.10
78649;DHT22;67962;47.310;9.642;2023-06-04T07:51:48;25.30;41.90
78649;DHT22;67962;47.310;9.642;2023-06-04T07:54:13;25.20;42.20
78649;DHT22;67962;47.310;9.642;2023-06-04T07:56:40;25.30;43.10
78649;DHT22;67962;47.310;9.642;2023-06-04T07:59:05;25.10;42.40
78649;DHT22;67962;47.310;9.642;2023-06-04T08:01:31;25.10;43.00
78649;DHT22;67962;47.310;9.642;2023-06-04T08:03:57;24.90;43.00
78649;DHT22;67962;47.310;9.642;2023-06-04T08:06:24;24.90;43.40
78649;DHT22;67962;47.310;9.642;2023-06-04T08:08:52;24.60;42.80
78649;DHT22;67962;47.310;9.642;2023-06-04T08:11:18;24.70;43.80
78649;DHT22;67962;47.310;9.642;2023-06-04T08:13:44;24.70;44.10
78649;DHT22;67962;47.310;9.642;2023-06-04T08:16:09;24.70;44.10
78649;DHT22;67962;47.310;9.642;2023-06-04T08:18:39;24.50;43.30
78649;DHT22;67962;47.310;9.642;2023-06-04T08:21:05;24.40;44.30
78649;DHT22;67962;47.310;9.642;2023-06-04T08:23:32;24.40;45.00
78649;DHT22;67962;47.310;9.642;2023-06-04T08:25:57;24.40;45.00
78649;DHT22;67962;47.310;9.642;2023-06-04T08:28:24;24.80;45.30
78649;DHT22;67962;47.310;9.642;2023-06-04T08:30:50;25.20;42.90
78649;DHT22;67962;47.310;9.642;2023-06-04T08:33:16;25.50;42.40
78649;DHT22;67962;47.310;9.642;2023-06-04T08:35:42;25.70;43.00
78649;DHT22;67962;47.310;9.642;2023-06-04T08:38:10;26.20;42.30
78649;DHT22;67962;47.310;9.642;2023-06-04T08:40:36;26.20;39.00
78649;DHT22;67962;47.310;9.642;2023-06-04T08:43:02;26.40;39.90
78649;DHT22;67962;47.310;9.642;2023-06-04T08:45:27;26.80;37.80
78649;DHT22;67962;47.310;9.642;2023-06-04T08:47:54;26.60;36.90
78649;DHT22;67962;47.310;9.642;2023-06-04T08:50:23;26.40;38.20
78649;DHT22;67962;47.310;9.642;2023-06-04T08:52:53;26.30;39.40
78649;DHT22;67962;47.310;9.642;2023-06-04T08:55:20;26.60;39.70
78649;DHT22;67962;47.310;9.642;2023-06-04T08:57:47;26.70;37.50
78649;DHT22;67962;47.310;9.642;2023-06-04T09:00:14;26.50;38.20
78649;DHT22;67962;47.310;9.642;2023-06-04T09:02:41;26.40;37.90
78649;DHT22;67962;47.310;9.642;2023-06-04T09:05:07;26.30;39.10
78649;DHT22;67962;47.310;9.642;2023-06-04T09:07:37;26.40;40.40
78649;DHT22;67962;47.310;9.642;2023-06-04T09:10:08;26.60;39.20
78649;DHT22;67962;47.310;9.642;2023-06-04T09:12:36;26.90;39.60
78649;DHT22;67962;47.310;9.642;2023-06-04T09:15:05;27.10;39.40
78649;DHT22;67962;47.310;9.642;2023-06-04T09:17:32;27.40;40.10
78649;DHT22;67962;47.310;9.642;2023-06-04T09:19:58;27.50;40.10
78649;DHT22;67962;47.310;9.642;2023-06-04T09:22:34;27.50;38.80
78649;DHT22;67962;47.310;9.642;2023-06-04T09:25:00;27.80;38.90
78649;DHT22;67962;47.310;9.642;2023-06-04T09:27:25;27.90;38.20
78649;DHT22;67962;47.310;9.642;2023-06-04T09:29:55;27.90;38.30
78649;DHT22;67962;47.310;9.642;2023-06-04T09:32:28;27.80;37.60
78649;DHT22;67962;47.310;9.642;2023-06-04T09:34:55;27.80;38.30
78649;DHT22;67962;47.310;9.642;2023-06-04T09:37:22;27.60;35.90
78649;DHT22;67962;47.310;9.642;2023-06-04T09:39:55;27.10;37.10
78649;DHT22;67962;47.310;9.642;2023-06-04T09:42:24;26.80;39.20
78649;DHT22;67962;47.310;9.642;2023-06-04T09:44:50;26.90;40.30
78649;DHT22;67962;47.310;9.642;2023-06-04T09:47:15;27.20;39.30
78649;DHT22;67962;47.310;9.642;2023-06-04T09:52:08;27.50;39.50
78649;DHT22;67962;47.310;9.642;2023-06-04T09:54:37;27.90;39.10
78649;DHT22;67962;47.310;9.642;2023-06-04T09:57:14;28.00;36.70
78649;DHT22;67962;47.310;9.642;2023-06-04T09:59:49;27.80;36.60
78649;DHT22;67962;47.310;9.642;2023-06-04T10:02:19;27.70;36.90
78649;DHT22;67962;47.310;9.642;2023-06-04T10:04:51;27.50;37.90
78649;DHT22;67962;47.310;9.642;2023-06-04T10:07:19;27.40;38.40
78649;DHT22;67962;47.310;9.642;2023-06-04T10:09:47;27.60;39.10
78649;DHT22;67962;47.310;9.642;2023-06-04T10:12:16;27.60;38.00
78649;DHT22;67962;47.310;9.642;2023-06-04T10:14:52;27.40;37.80
78649;DHT22;67962;47.310;9.642;2023-06-04T10:17:22;27.30;38.10
78649;DHT22;67962;47.310;9.642;2023-06-04T10:19:49;27.30;38.50
78649;DHT22;67962;47.310;9.642;2023-06-04T10:22:17;27.40;37.70
78649;DHT22;67962;47.310;9.642;2023-06-04T10:24:44;27.50;38.30
78649;DHT22;67962;47.310;9.642;2023-06-04T10:27:11;27.50;38.90
78649;DHT22;67962;47.310;9.642;2023-06-04T10:29:39;27.60;38.00
78649;DHT22;67962;47.310;9.642;2023-06-04T10:32:05;27.90;38.30
78649;DHT22;67962;47.310;9.642;2023-06-04T10:34:31;28.10;37.50
78649;DHT22;67962;47.310;9.642;2023-06-04T10:36:58;28.10;37.00
78649;DHT22;67962;47.310;9.642;2023-06-04T10:39:31;27.90;36.00
78649;DHT22;67962;47.310;9.642;2023-06-04T10:42:05;27.90;37.50
78649;DHT22;67962;47.310;9.642;2023-06-04T10:44:31;28.00;37.10
78649;DHT22;67962;47.310;9.642;2023-06-04T10:46:58;28.20;35.90
78649;DHT22;67962;47.310;9.642;2023-06-04T10:49:28;28.30;35.80
78649;DHT22;67962;47.310;9.642;2023-06-04T10:51:54;28.30;37.30
78649;DHT22;67962;47.310;9.642;2023-06-04T10:54:25;28.10;35.10
78649;DHT22;67962;47.310;9.642;2023-06-04T10:56:52;27.50;35.80
78649;DHT22;67962;47.310;9.642;2023-06-04T10:59:19;27.10;36.50
78649;DHT22;67962;47.310;9.642;2023-06-04T11:01:45;27.10;37.80
78649;DHT22;67962;47.310;9.642;2023-06-04T11:04:26;27.10;38.80
78649;DHT22;67962;47.310;9.642;2023-06-04T11:07:06;27.10;36.90
78649;DHT22;67962;47.310;9.642;2023-06-04T11:09:36;27.20;35.50
78649;DHT22;67962;47.310;9.642;2023-06-04T11:12:04;27.10;35.50
78649;DHT22;67962;47.310;9.642;2023-06-04T11:14:30;27.20;36.80
78649;DHT22;67962;47.310;9.642;2023-06-04T11:16:56;27.20;33.90
78649;DHT22;67962;47.310;9.642;2023-06-04T11:19:22;27.00;34.80
78649;DHT22;67962;47.310;9.642;2023-06-04T11:21:48;26.70;33.90
78649;DHT22;67962;47.310;9.642;2023-06-04T11:24:16;26.60;35.60
78649;DHT22;67962;47.310;9.642;2023-06-04T11:26:42;26.60;35.90
78649;DHT22;67962;47.310;9.642;2023-06-04T11:29:10;26.50;34.50
78649;DHT22;67962;47.310;9.642;2023-06-04T11:31:45;26.50;35.00
78649;DHT22;67962;47.310;9.642;2023-06-04T11:34:21;26.50;35.00
78649;DHT22;67962;47.310;9.642;2023-06-04T11:36:47;26.30;33.20
78649;DHT22;67962;47.310;9.642;2023-06-04T11:39:15;26.30;34.20
78649;DHT22;67962;47.310;9.642;2023-06-04T11:41:41;26.40;35.40
78649;DHT22;67962;47.310;9.642;2023-06-04T11:44:07;26.30;33.70
78649;DHT22;67962;47.310;9.642;2023-06-04T11:46:35;26.20;34.40
78649;DHT22;67962;47.310;9.642;2023-06-04T11:49:02;26.20;35.60
78649;DHT22;67962;47.310;9.642;2023-06-04T11:51:28;26.20;35.80
78649;DHT22;67962;47.310;9.642;2023-06-04T11:53:54;26.30;36.50
78649;DHT22;67962;47.310;9.642;2023-06-04T11:56:22;26.40;36.60
78649;DHT22;67962;47.310;9.642;2023-06-04T11:58:49;26.40;35.30
78649;DHT22;67962;47.310;9.642;2023-06-04T12:01:15;26.40;34.90
78649;DHT22;67962;47.310;9.642;2023-06-04T12:03:41;26.50;36.60
78649;DHT22;67962;47.310;9.642;2023-06-04T12:06:15;26.50;35.00
78649;DHT22;67962;47.310;9.642;2023-06-04T12:08:59;26.50;35.60
78649;DHT22;67962;47.310;9.642;2023-06-04T12:11:32;26.50;35.70
78649;DHT22;67962;47.310;9.642;2023-06-04T12:14:00;26.50;36.00
78649;DHT22;67962;47.310;9.642;2023-06-04T12:16:27;26.70;34.30
78649;DHT22;67962;47.310;9.642;2023-06-04T12:19:07;26.60;33.90
78649;DHT22;67962;47.310;9.642;2023-06-04T12:21:33;26.70;34.60
78649;DHT22;67962;47.310;9.642;2023-06-04T12:24:19;27.00;34.60
78649;DHT22;67962;47.310;9.642;2023-06-04T12:26:44;27.20;34.70
78649;DHT22;67962;47.310;9.642;2023-06-04T12:29:12;27.50;35.30
78649;DHT22;67962;47.310;9.642;2023-06-04T12:31:39;27.60;35.90
78649;DHT22;67962;47.310;9.642;2023-06-04T12:34:05;27.60;35.00
78649;DHT22;67962;47.310;9.642;2023-06-04T12:36:31;27.60;34.40
78649;DHT22;67962;47.310;9.642;2023-06-04T12:39:00;27.70;34.70
78649;DHT22;67962;47.310;9.642;2023-06-04T12:41:27;27.70;35.10
78649;DHT22;67962;47.310;9.642;2023-06-04T12:43:54;27.60;34.70
78649;DHT22;67962;47.310;9.642;2023-06-04T12:46:20;27.50;35.00
78649;DHT22;67962;47.310;9.642;2023-06-04T12:48:47;27.60;35.30
78649;DHT22;67962;47.310;9.642;2023-06-04T12:51:13;27.50;35.60
78649;DHT22;67962;47.310;9.642;2023-06-04T12:53:40;27.30;35.60
78649;DHT22;67962;47.310;9.642;2023-06-04T12:56:06;27.20;35.90
78649;DHT22;67962;47.310;9.642;2023-06-04T12:58:31;27.20;35.10
78649;DHT22;67962;47.310;9.642;2023-06-04T13:00:57;27.20;35.30
78649;DHT22;67962;47.310;9.642;2023-06-04T13:03:23;27.10;35.50
78649;DHT22;67962;47.310;9.642;2023-06-04T13:05:49;26.90;35.90
78649;DHT22;67962;47.310;9.642;2023-06-04T13:08:16;26.90;36.30
78649;DHT22;67962;47.310;9.642;2023-06-04T13:10:42;26.90;36.80
78649;DHT22;67962;47.310;9.642;2023-06-04T13:13:08;26.90;37.50
78649;DHT22;67962;47.310;9.642;2023-06-04T13:15:33;26.90;37.80
78649;DHT22;67962;47.310;9.642;2023-06-04T13:17:59;26.80;38.90
78649;DHT22;67962;47.310;9.642;2023-06-04T13:20:25;26.70;37.50
78649;DHT22;67962;47.310;9.642;2023-06-04T13:22:50;26.50;37.20
78649;DHT22;67962;47.310;9.642;2023-06-04T13:25:16;26.30;37.00
78649;DHT22;67962;47.310;9.642;2023-06-04T13:27:44;26.20;36.50
78649;DHT22;67962;47.310;9.642;2023-06-04T13:30:10;26.20;36.00
78649;DHT22;67962;47.310;9.642;2023-06-04T13:32:35;26.10;35.50
78649;DHT22;67962;47.310;9.642;2023-06-04T13:35:01;26.10;35.60
78649;DHT22;67962;47.310;9.642;2023-06-04T13:37:27;26.10;35.60
78649;DHT22;67962;47.310;9.642;2023-06-04T13:39:53;26.20;35.50
78649;DHT22;67962;47.310;9.642;2023-06-04T13:42:18;26.30;35.80
78649;DHT22;67962;47.310;9.642;2023-06-04T13:44:44;26.40;36.30
78649;DHT22;67962;47.310;9.642;2023-06-04T13:47:10;26.40;35.20
78649;DHT22;67962;47.310;9.642;2023-06-04T13:49:36;26.40;34.70
78649;DHT22;67962;47.310;9.642;2023-06-04T13:52:01;26.50;34.10
78649;DHT22;67962;47.310;9.642;2023-06-04T13:54:27;26.60;33.40
78649;DHT22;67962;47.310;9.642;2023-06-04T13:56:53;26.60;32.50
78649;DHT22;67962;47.310;9.642;2023-06-04T13:59:19;26.60;32.70
78649;DHT22;67962;47.310;9.642;2023-06-04T14:01:44;26.70;33.60
78649;DHT22;67962;47.310;9.642;2023-06-04T14:04:10;26.70;35.70
78649;DHT22;67962;47.310;9.642;2023-06-04T14:06:37;26.40;36.60
78649;DHT22;67962;47.310;9.642;2023-06-04T14:09:03;26.20;37.30
78649;DHT22;67962;47.310;9.642;2023-06-04T14:11:29;25.90;37.30
78649;DHT22;67962;47.310;9.642;2023-06-04T14:13:55;25.70;37.50
78649;DHT22;67962;47.310;9.642;2023-06-04T14:16:21;25.40;38.80
78649;DHT22;67962;47.310;9.642;2023-06-04T14:18:47;25.10;40.30
78649;DHT22;67962;47.310;9.642;2023-06-04T14:21:12;25.00;39.90
78649;DHT22;67962;47.310;9.642;2023-06-04T14:23:38;25.00;40.60
78649;DHT22;67962;47.310;9.642;2023-06-04T14:26:04;24.90;40.20
78649;DHT22;67962;47.310;9.642;2023-06-04T14:28:30;24.80;40.40
78649;DHT22;67962;47.310;9.642;2023-06-04T14:30:55;24.70;41.00
78649;DHT22;67962;47.310;9.642;2023-06-04T14:33:23;24.80;41.60
78649;DHT22;67962;47.310;9.642;2023-06-04T14:35:48;24.80;41.30
78649;DHT22;67962;47.310;9.642;2023-06-04T14:38:14;24.80;41.60
78649;DHT22;67962;47.310;9.642;2023-06-04T14:40:41;24.80;41.20
78649;DHT22;67962;47.310;9.642;2023-06-04T14:43:11;24.80;42.40
78649;DHT22;67962;47.310;9.642;2023-06-04T14:45:37;24.80;41.00
78649;DHT22;67962;47.310;9.642;2023-06-04T14:48:05;24.90;41.30
78649;DHT22;67962;47.310;9.642;2023-06-04T14:50:31;25.00;40.80
78649;DHT22;67962;47.310;9.642;2023-06-04T14:52:56;25.20;40.60
78649;DHT22;67962;47.310;9.642;2023-06-04T14:55:24;25.20;40.60
78649;DHT22;67962;47.310;9.642;2023-06-04T14:57:50;25.30;40.20
78649;DHT22;67962;47.310;9.642;2023-06-04T15:00:16;25.40;39.20
78649;DHT22;67962;47.310;9.642;2023-06-04T15:02:42;25.40;38.60
78649;DHT22;67962;47.310;9.642;2023-06-04T15:05:08;25.50;38.80
78649;DHT22;67962;47.310;9.642;2023-06-04T15:07:34;25.50;39.20
78649;DHT22;67962;47.310;9.642;2023-06-04T15:09:59;25.50;39.10
78649;DHT22;67962;47.310;9.642;2023-06-04T15:12:27;25.50;38.80
78649;DHT22;67962;47.310;9.642;2023-06-04T15:14:53;25.30;39.40
78649;DHT22;67962;47.310;9.642;2023-06-04T15:17:19;25.20;39.50
78649;DHT22;67962;47.310;9.642;2023-06-04T15:19:45;25.20;39.40
78649;DHT22;67962;47.310;9.642;2023-06-04T15:22:10;25.20;40.10
78649;DHT22;67962;47.310;9.642;2023-06-04T15:24:36;25.20;39.40
78649;DHT22;67962;47.310;9.642;2023-06-04T15:27:02;25.30;39.10
78649;DHT22;67962;47.310;9.642;2023-06-04T15:29:28;25.30;38.80
78649;DHT22;67962;47.310;9.642;2023-06-04T15:31:53;25.20;39.50
78649;DHT22;67962;47.310;9.642;2023-06-04T15:34:19;25.20;39.10
78649;DHT22;67962;47.310;9.642;2023-06-04T15:36:44;25.20;38.30
78649;DHT22;67962;47.310;9.642;2023-06-04T15:39:12;25.20;38.30